Time;durP1;ratioP1;P1;durP2;ratioP2;P2;SDS_P1;SDS_P2;PMS_P1;PMS_P2;Temp;Humidity;BMP_temperature;BMP_pressure;BME280_temperature;BME280_humidity;BME280_pressure;Samples;Min_cycle;Max_cycle;Signal;HPM_P1;HPM_P2
2020/12/17 00:00:29;;;;;;;0.10;0.10;;;;;;;;;;5053585;28;20029;-72
2020/12/17 00:02:55;;;;;;;0.20;0.20;;;;;;;;;;5036376;28;20029;-71
2020/12/17 00:05:20;;;;;;;0.10;0.10;;;;;;;;;;5053450;28;20057;-71
2020/12/17 00:07:46;;;;;;;0.20;0.20;;;;;;;;;;5053706;28;20100;-71
2020/12/17 00:10:12;;;;;;;0.20;0.20;;;;;;;;;;5053422;28;20033;-72
2020/12/17 00:12:37;;;;;;;0.17;0.17;;;;;;;;;;5053319;28;20282;-72
2020/12/17 00:15:06;;;;;;;0.20;0.20;;;;;;;;;;5036659;28;20106;-72
2020/12/17 00:17:32;;;;;;;0.20;0.20;;;;;;;;;;5051296;28;20524;-72
2020/12/17 00:19:57;;;;;;;0.17;0.17;;;;;;;;;;5033938;28;20025;-71
2020/12/17 00:22:23;;;;;;;0.20;0.20;;;;;;;;;;5017874;28;20029;-71
2020/12/17 00:24:48;;;;;;;0.20;0.20;;;;;;;;;;5018331;28;20029;-72
2020/12/17 00:27:13;;;;;;;0.15;0.15;;;;;;;;;;5040626;28;20263;-71
2020/12/17 00:29:39;;;;;;;0.20;0.20;;;;;;;;;;5050809;28;20029;-71
2020/12/17 00:32:04;;;;;;;0.20;0.20;;;;;;;;;;5033017;28;20056;-72
2020/12/17 00:34:29;;;;;;;0.20;0.20;;;;;;;;;;5050541;28;20033;-72
2020/12/17 00:36:54;;;;;;;0.20;0.20;;;;;;;;;;5052621;28;20025;-71
2020/12/17 00:39:20;;;;;;;0.10;0.10;;;;;;;;;;5034488;28;20291;-70
2020/12/17 00:41:45;;;;;;;0.20;0.20;;;;;;;;;;5035472;28;20282;-71
2020/12/17 00:44:11;;;;;;;0.20;0.20;;;;;;;;;;5053380;28;20087;-71
2020/12/17 00:46:36;;;;;;;0.20;0.20;;;;;;;;;;5053244;28;20104;-71
2020/12/17 00:49:02;;;;;;;0.20;0.20;;;;;;;;;;5054168;28;20393;-71
2020/12/17 00:51:27;;;;;;;0.10;0.10;;;;;;;;;;5036241;28;20097;-72
2020/12/17 00:53:52;;;;;;;0.20;0.20;;;;;;;;;;5035997;28;20052;-72
2020/12/17 00:56:17;;;;;;;0.20;0.20;;;;;;;;;;5052739;28;20389;-72
2020/12/17 00:58:43;;;;;;;0.10;0.10;;;;;;;;;;5051725;28;20078;-72
2020/12/17 01:01:08;;;;;;;0.20;0.20;;;;;;;;;;5016442;28;20079;-71
2020/12/17 01:03:33;;;;;;;0.20;0.20;;;;;;;;;;5033807;28;20256;-71
2020/12/17 01:05:59;;;;;;;0.13;0.13;;;;;;;;;;5015529;28;20029;-71
2020/12/17 01:08:24;;;;;;;0.20;0.20;;;;;;;;;;5032847;28;20036;-71
2020/12/17 01:10:49;;;;;;;0.20;0.20;;;;;;;;;;5015981;28;20141;-71
2020/12/17 01:13:15;;;;;;;0.20;0.20;;;;;;;;;;5032430;28;20292;-71
2020/12/17 01:15:40;;;;;;;0.10;0.10;;;;;;;;;;5033927;28;20609;-71
2020/12/17 01:18:06;;;;;;;0.10;0.10;;;;;;;;;;5015830;28;20029;-71
2020/12/17 01:20:31;;;;;;;0.20;0.20;;;;;;;;;;5032290;28;20033;-71
2020/12/17 01:22:57;;;;;;;0.38;0.20;;;;;;;;;;5032150;28;20116;-72
2020/12/17 01:25:22;;;;;;;0.20;0.20;;;;;;;;;;5033862;28;20108;-71
2020/12/17 01:27:48;;;;;;;0.35;0.30;;;;;;;;;;5032492;28;20512;-71
2020/12/17 01:30:13;;;;;;;0.38;0.20;;;;;;;;;;5015682;28;20034;-71
2020/12/17 01:32:39;;;;;;;0.30;0.30;;;;;;;;;;5032444;28;20040;-72
2020/12/17 01:35:04;;;;;;;0.47;0.40;;;;;;;;;;5015641;28;20359;-71
2020/12/17 01:37:29;;;;;;;0.63;0.40;;;;;;;;;;5032183;28;20470;-72
2020/12/17 01:39:55;;;;;;;0.30;0.30;;;;;;;;;;5033385;28;20112;-72
2020/12/17 01:42:21;;;;;;;0.30;0.30;;;;;;;;;;5033186;28;20470;-72
2020/12/17 01:44:47;;;;;;;0.30;0.30;;;;;;;;;;5015670;28;20317;-72
2020/12/17 01:47:12;;;;;;;0.20;0.20;;;;;;;;;;5015362;28;20029;-72
2020/12/17 01:49:37;;;;;;;0.22;0.22;;;;;;;;;;5031885;28;20482;-71
2020/12/17 01:52:02;;;;;;;0.20;0.20;;;;;;;;;;5015297;28;20068;-71
2020/12/17 01:54:27;;;;;;;0.73;0.37;;;;;;;;;;5031957;28;20132;-71
2020/12/17 01:56:56;;;;;;;0.20;0.20;;;;;;;;;;5033127;28;20779;-71
2020/12/17 01:59:22;;;;;;;0.20;0.20;;;;;;;;;;5031770;28;20291;-71
2020/12/17 02:01:48;;;;;;;0.20;0.20;;;;;;;;;;5015338;28;20117;-71
2020/12/17 02:04:14;;;;;;;0.20;0.20;;;;;;;;;;5034794;28;20052;-71
2020/12/17 02:06:40;;;;;;;0.20;0.20;;;;;;;;;;5051717;28;20040;-71
2020/12/17 02:09:05;;;;;;;0.20;0.20;;;;;;;;;;5051638;28;20037;-71
2020/12/17 02:11:30;;;;;;;0.20;0.20;;;;;;;;;;5034952;28;20052;-71
2020/12/17 02:13:55;;;;;;;0.30;0.27;;;;;;;;;;5048717;28;20366;-72
2020/12/17 02:16:21;;;;;;;0.30;0.30;;;;;;;;;;5015589;28;20268;-72
2020/12/17 02:18:52;;;;;;;0.20;0.20;;;;;;;;;;5018848;28;20263;-72
2020/12/17 02:21:17;;;;;;;0.20;0.20;;;;;;;;;;5036929;28;20291;-72
2020/12/17 02:23:42;;;;;;;0.30;0.30;;;;;;;;;;5035819;28;20025;-72
2020/12/17 02:26:07;;;;;;;0.20;0.20;;;;;;;;;;5019107;28;20026;-72
2020/12/17 02:28:33;;;;;;;0.35;0.30;;;;;;;;;;5050124;28;20370;-71
2020/12/17 02:30:58;;;;;;;0.47;0.40;;;;;;;;;;5055626;28;20521;-72
2020/12/17 02:33:23;;;;;;;0.20;0.20;;;;;;;;;;5038759;28;20036;-72
2020/12/17 02:35:48;;;;;;;0.30;0.30;;;;;;;;;;5035451;28;20022;-72
2020/12/17 02:38:14;;;;;;;0.43;0.30;;;;;;;;;;5035449;28;20803;-72
2020/12/17 02:40:39;;;;;;;0.20;0.20;;;;;;;;;;5036845;28;20068;-72
2020/12/17 02:43:04;;;;;;;0.25;0.25;;;;;;;;;;5035468;28;20784;-72
2020/12/17 02:45:30;;;;;;;0.32;0.30;;;;;;;;;;5042690;28;20080;-72
2020/12/17 02:47:55;;;;;;;0.20;0.20;;;;;;;;;;5055357;28;20083;-72
2020/12/17 02:50:21;;;;;;;0.20;0.20;;;;;;;;;;5056749;28;20067;-72
2020/12/17 02:52:46;;;;;;;0.50;0.50;;;;;;;;;;5038023;28;20099;-72
2020/12/17 02:55:11;;;;;;;1.05;0.47;;;;;;;;;;5055201;28;20025;-72
2020/12/17 02:57:37;;;;;;;0.47;0.30;;;;;;;;;;5055363;28;20041;-71
2020/12/17 03:00:06;;;;;;;0.23;0.23;;;;;;;;;;5055374;28;20025;-71
2020/12/17 03:02:31;;;;;;;0.20;0.20;;;;;;;;;;5054959;28;20303;-72
2020/12/17 03:04:56;;;;;;;0.20;0.20;;;;;;;;;;5050332;28;20083;-71
2020/12/17 03:07:22;;;;;;;0.30;0.30;;;;;;;;;;5036557;28;20130;-71
2020/12/17 03:09:47;;;;;;;0.20;0.20;;;;;;;;;;5034832;28;20478;-71
2020/12/17 03:12:13;;;;;;;0.10;0.10;;;;;;;;;;5035938;28;20367;-71
2020/12/17 03:14:38;;;;;;;0.20;0.20;;;;;;;;;;5018576;28;20060;-73
2020/12/17 03:17:03;;;;;;;0.20;0.20;;;;;;;;;;5034994;28;20026;-71
2020/12/17 03:19:29;;;;;;;0.20;0.20;;;;;;;;;;5034561;28;20261;-72
2020/12/17 03:21:54;;;;;;;0.30;0.30;;;;;;;;;;5018173;28;20030;-72
2020/12/17 03:24:19;;;;;;;0.20;0.20;;;;;;;;;;5035733;28;20330;-73
2020/12/17 03:26:45;;;;;;;0.20;0.20;;;;;;;;;;5036144;28;20057;-73
2020/12/17 03:29:10;;;;;;;0.20;0.20;;;;;;;;;;5035219;28;20095;-73
2020/12/17 03:31:36;;;;;;;0.28;0.28;;;;;;;;;;5034388;28;20091;-73
2020/12/17 03:34:03;;;;;;;1.73;0.80;;;;;;;;;;5017721;28;20025;-72
2020/12/17 03:36:29;;;;;;;1.10;0.60;;;;;;;;;;5034191;28;20263;-72
2020/12/17 03:38:54;;;;;;;0.37;0.23;;;;;;;;;;5017785;28;20386;-72
2020/12/17 03:41:19;;;;;;;0.20;0.20;;;;;;;;;;5034276;28;20261;-72
2020/12/17 03:43:45;;;;;;;0.63;0.40;;;;;;;;;;5017572;28;20338;-72
2020/12/17 03:46:10;;;;;;;0.85;0.50;;;;;;;;;;5035595;28;20256;-70
2020/12/17 03:48:35;;;;;;;0.37;0.30;;;;;;;;;;5034249;28;20423;-71
2020/12/17 03:51:01;;;;;;;0.28;0.28;;;;;;;;;;5033937;28;20298;-71
2020/12/17 03:53:26;;;;;;;0.32;0.30;;;;;;;;;;5043426;28;20394;-71
2020/12/17 03:55:52;;;;;;;0.20;0.20;;;;;;;;;;5015690;28;20087;-71
2020/12/17 03:58:17;;;;;;;0.20;0.20;;;;;;;;;;4981724;28;20119;-71
2020/12/17 04:00:42;;;;;;;0.30;0.30;;;;;;;;;;4997964;28;20104;-71
2020/12/17 04:03:07;;;;;;;0.13;0.13;;;;;;;;;;5001697;28;20304;-71
2020/12/17 04:05:33;;;;;;;0.20;0.20;;;;;;;;;;5000996;28;20279;-71
2020/12/17 04:07:58;;;;;;;0.20;0.20;;;;;;;;;;5017421;28;20120;-71
2020/12/17 04:10:24;;;;;;;0.10;0.10;;;;;;;;;;5017262;28;20025;-71
2020/12/17 04:12:49;;;;;;;0.13;0.13;;;;;;;;;;5000594;28;20496;-70
2020/12/17 04:15:15;;;;;;;0.20;0.20;;;;;;;;;;5016950;28;20292;-70
2020/12/17 04:17:40;;;;;;;0.20;0.20;;;;;;;;;;5000712;28;20037;-70
2020/12/17 04:20:05;;;;;;;0.20;0.20;;;;;;;;;;4997264;28;21003;-69
2020/12/17 04:22:30;;;;;;;0.10;0.10;;;;;;;;;;4997252;28;20272;-69
2020/12/17 04:24:56;;;;;;;0.20;0.20;;;;;;;;;;4997241;28;20037;-69
2020/12/17 04:27:21;;;;;;;0.20;0.20;;;;;;;;;;4997117;28;20037;-69
2020/12/17 04:29:47;;;;;;;0.10;0.10;;;;;;;;;;5015071;28;20030;-70
2020/12/17 04:32:12;;;;;;;0.20;0.20;;;;;;;;;;4997363;28;20037;-69
2020/12/17 04:34:38;;;;;;;0.20;0.20;;;;;;;;;;4997012;28;20065;-69
2020/12/17 04:37:03;;;;;;;0.20;0.20;;;;;;;;;;5014384;28;20030;-69
2020/12/17 04:39:29;;;;;;;0.20;0.20;;;;;;;;;;4996054;28;20077;-69
2020/12/17 04:41:54;;;;;;;0.10;0.10;;;;;;;;;;5009860;28;20041;-69
2020/12/17 04:44:19;;;;;;;0.20;0.20;;;;;;;;;;5016593;28;20254;-69
2020/12/17 04:46:49;;;;;;;0.20;0.20;;;;;;;;;;4996622;28;20109;-70
2020/12/17 04:49:15;;;;;;;0.20;0.20;;;;;;;;;;4996901;28;20045;-71
2020/12/17 04:51:40;;;;;;;0.20;0.20;;;;;;;;;;4997146;28;20034;-71
2020/12/17 04:54:05;;;;;;;0.20;0.20;;;;;;;;;;5022225;28;20046;-71
2020/12/17 04:56:35;;;;;;;0.20;0.20;;;;;;;;;;5032773;28;20347;-71
2020/12/17 04:59:00;;;;;;;0.20;0.20;;;;;;;;;;5016195;28;20268;-71
2020/12/17 05:01:27;;;;;;;0.20;0.20;;;;;;;;;;5032817;28;20492;-71
2020/12/17 05:03:52;;;;;;;0.20;0.20;;;;;;;;;;5032986;28;20036;-71
2020/12/17 05:06:18;;;;;;;0.20;0.20;;;;;;;;;;5034606;28;20029;-71
2020/12/17 05:08:44;;;;;;;0.20;0.20;;;;;;;;;;5052611;28;20021;-71
2020/12/17 05:11:09;;;;;;;0.20;0.20;;;;;;;;;;5052217;28;20474;-71
2020/12/17 05:13:34;;;;;;;0.20;0.20;;;;;;;;;;5035487;28;20037;-71
2020/12/17 05:15:59;;;;;;;0.10;0.10;;;;;;;;;;5032360;28;20279;-71
2020/12/17 05:18:25;;;;;;;0.20;0.20;;;;;;;;;;5032261;28;20029;-70
2020/12/17 05:20:50;;;;;;;0.20;0.20;;;;;;;;;;5015881;28;20394;-71
2020/12/17 05:23:15;;;;;;;0.10;0.10;;;;;;;;;;5032652;28;20037;-71
2020/12/17 05:25:40;;;;;;;0.20;0.20;;;;;;;;;;5032524;28;20029;-71
2020/12/17 05:28:06;;;;;;;0.20;0.20;;;;;;;;;;5025556;28;20045;-71
2020/12/17 05:30:31;;;;;;;0.20;0.20;;;;;;;;;;5032755;28;20374;-71
2020/12/17 05:32:57;;;;;;;0.17;0.17;;;;;;;;;;5049041;28;20281;-71
2020/12/17 05:35:23;;;;;;;0.10;0.10;;;;;;;;;;5049441;28;20026;-71
2020/12/17 05:37:48;;;;;;;0.20;0.20;;;;;;;;;;5049376;28;20117;-72
2020/12/17 05:40:14;;;;;;;0.20;0.20;;;;;;;;;;5049112;28;20452;-71
2020/12/17 05:42:39;;;;;;;0.10;0.10;;;;;;;;;;5049302;28;20033;-71
2020/12/17 05:45:21;;;;;;;0.20;0.20;;;;;;;;;;5038745;28;20036;-71
2020/12/17 05:48:05;;;;;;;0.20;0.20;;;;;;;;;;5051097;28;20033;-71
2020/12/17 05:50:30;;;;;;;0.20;0.20;;;;;;;;;;5032158;28;20034;-71
2020/12/17 05:52:55;;;;;;;0.20;0.20;;;;;;;;;;5040640;28;20048;-70
2020/12/17 05:55:21;;;;;;;0.20;0.20;;;;;;;;;;5052012;28;20388;-70
2020/12/17 05:57:52;;;;;;;0.20;0.20;;;;;;;;;;5032030;28;20260;-71
2020/12/17 06:00:19;;;;;;;0.20;0.20;;;;;;;;;;5032069;28;20056;-71
2020/12/17 06:02:45;;;;;;;0.10;0.10;;;;;;;;;;5033622;28;20037;-71
2020/12/17 06:05:10;;;;;;;0.20;0.20;;;;;;;;;;5035114;28;20029;-71
2020/12/17 06:07:39;;;;;;;0.20;0.20;;;;;;;;;;5053038;28;20025;-71
2020/12/17 06:10:05;;;;;;;0.20;0.20;;;;;;;;;;5036861;28;20038;-71
2020/12/17 06:12:30;;;;;;;0.20;0.20;;;;;;;;;;5047357;28;20037;-71
2020/12/17 06:14:55;;;;;;;0.20;0.20;;;;;;;;;;5033891;28;20392;-72
2020/12/17 06:17:21;;;;;;;0.20;0.20;;;;;;;;;;5016947;28;20028;-71
2020/12/17 06:19:46;;;;;;;0.20;0.20;;;;;;;;;;5034890;28;20321;-71
2020/12/17 06:22:11;;;;;;;0.20;0.20;;;;;;;;;;5035035;28;20770;-71
2020/12/17 06:24:37;;;;;;;0.20;0.20;;;;;;;;;;5035269;28;20264;-70
2020/12/17 06:27:02;;;;;;;0.20;0.20;;;;;;;;;;5051508;28;20259;-69
2020/12/17 06:29:27;;;;;;;0.13;0.13;;;;;;;;;;5034985;28;20036;-71
2020/12/17 06:31:56;;;;;;;0.13;0.13;;;;;;;;;;5035096;28;20314;-71
2020/12/17 06:34:22;;;;;;;0.15;0.15;;;;;;;;;;5015307;28;20260;-71
2020/12/17 06:36:56;;;;;;;0.20;0.20;;;;;;;;;;5033138;28;20029;-72
2020/12/17 06:39:22;;;;;;;0.20;0.20;;;;;;;;;;5041866;28;20029;-71
2020/12/17 06:41:47;;;;;;;0.20;0.20;;;;;;;;;;5038090;28;20032;-72
2020/12/17 06:44:26;;;;;;;0.20;0.20;;;;;;;;;;5039845;28;20033;-71
2020/12/17 06:46:58;;;;;;;0.20;0.20;;;;;;;;;;5031767;28;20390;-71
2020/12/17 06:49:27;;;;;;;0.20;0.20;;;;;;;;;;5015072;28;20432;-71
2020/12/17 06:52:07;;;;;;;0.20;0.20;;;;;;;;;;5031635;28;20467;-72
2020/12/17 06:54:33;;;;;;;0.20;0.20;;;;;;;;;;5030847;28;20061;-72
2020/12/17 06:57:16;;;;;;;0.20;0.20;;;;;;;;;;5031759;28;20033;-72
2020/12/17 06:59:41;;;;;;;0.20;0.20;;;;;;;;;;5031504;28;20103;-72
2020/12/17 07:02:07;;;;;;;0.20;0.20;;;;;;;;;;5046828;28;20493;-72
2020/12/17 07:04:45;;;;;;;0.20;0.20;;;;;;;;;;5054131;28;20465;-71
2020/12/17 07:07:20;;;;;;;0.20;0.20;;;;;;;;;;5054856;28;20031;-72
2020/12/17 07:09:49;;;;;;;0.20;0.20;;;;;;;;;;5038120;28;20029;-71
2020/12/17 07:12:33;;;;;;;0.20;0.20;;;;;;;;;;5054822;28;20087;-72
2020/12/17 07:14:58;;;;;;;0.30;0.22;;;;;;;;;;5053970;28;20033;-72
2020/12/17 07:17:23;;;;;;;0.20;0.20;;;;;;;;;;5054959;28;20047;-71
2020/12/17 07:19:49;;;;;;;0.20;0.20;;;;;;;;;;5055098;28;20370;-71
2020/12/17 07:22:15;;;;;;;0.20;0.20;;;;;;;;;;5039142;28;20486;-71
2020/12/17 07:24:42;;;;;;;0.20;0.20;;;;;;;;;;5018199;28;20034;-71
2020/12/17 07:27:08;;;;;;;0.20;0.20;;;;;;;;;;5051117;28;20505;-71
2020/12/17 07:29:37;;;;;;;0.20;0.20;;;;;;;;;;5037995;28;20032;-71
2020/12/17 07:32:29;;;;;;;0.20;0.20;;;;;;;;;;5037649;28;20029;-71
2020/12/17 07:34:58;;;;;;;0.20;0.20;;;;;;;;;;5012356;28;20030;-71
2020/12/17 07:37:36;;;;;;;0.20;0.20;;;;;;;;;;5038234;28;20575;-71
2020/12/17 07:40:22;;;;;;;0.20;0.20;;;;;;;;;;5070096;28;20468;-71
2020/12/17 07:43:14;;;;;;;0.20;0.20;;;;;;;;;;5036992;28;20486;-71
2020/12/17 07:45:45;;;;;;;0.20;0.20;;;;;;;;;;5048746;28;20107;-71
2020/12/17 07:48:29;;;;;;;0.20;0.20;;;;;;;;;;5038452;28;20053;-71
2020/12/17 07:50:54;;;;;;;0.30;0.30;;;;;;;;;;5037760;28;20486;-71
2020/12/17 07:53:23;;;;;;;0.20;0.20;;;;;;;;;;5042098;28;20059;-71
2020/12/17 07:55:50;;;;;;;0.20;0.20;;;;;;;;;;5035189;28;20299;-70
2020/12/17 07:58:15;;;;;;;0.20;0.20;;;;;;;;;;5021641;28;20025;-71
2020/12/17 08:00:42;;;;;;;0.20;0.20;;;;;;;;;;5018724;28;20030;-72
2020/12/17 08:03:07;;;;;;;0.20;0.20;;;;;;;;;;5040088;28;20104;-71
2020/12/17 08:05:32;;;;;;;0.20;0.20;;;;;;;;;;5030659;28;20029;-71
2020/12/17 08:07:58;;;;;;;0.20;0.20;;;;;;;;;;5039648;28;20041;-71
2020/12/17 08:10:23;;;;;;;0.20;0.20;;;;;;;;;;5046823;28;20033;-71
2020/12/17 08:12:48;;;;;;;0.13;0.13;;;;;;;;;;5027527;28;20026;-72
2020/12/17 08:15:14;;;;;;;0.20;0.20;;;;;;;;;;5042134;28;20173;-73
2020/12/17 08:17:46;;;;;;;0.20;0.20;;;;;;;;;;5071761;28;20484;-73
2020/12/17 08:20:14;;;;;;;0.20;0.20;;;;;;;;;;5054296;28;20081;-71
2020/12/17 08:22:39;;;;;;;0.20;0.20;;;;;;;;;;5054188;28;20396;-72
2020/12/17 08:25:05;;;;;;;0.20;0.20;;;;;;;;;;5037357;28;20036;-72
2020/12/17 08:27:30;;;;;;;0.20;0.20;;;;;;;;;;5054042;28;20294;-73
2020/12/17 08:29:55;;;;;;;0.20;0.20;;;;;;;;;;5037215;28;20071;-72
2020/12/17 08:32:21;;;;;;;0.20;0.20;;;;;;;;;;5054135;28;20513;-73
2020/12/17 08:34:51;;;;;;;0.20;0.20;;;;;;;;;;5053506;28;20040;-73
2020/12/17 08:37:17;;;;;;;0.20;0.20;;;;;;;;;;5029991;28;20477;-73
2020/12/17 08:39:42;;;;;;;0.20;0.20;;;;;;;;;;5017368;28;20028;-72
2020/12/17 08:42:07;;;;;;;0.20;0.20;;;;;;;;;;5045784;28;20040;-73
2020/12/17 08:44:34;;;;;;;0.20;0.20;;;;;;;;;;5037080;28;20632;-71
2020/12/17 08:47:00;;;;;;;0.20;0.20;;;;;;;;;;5037109;28;20079;-72
2020/12/17 08:49:25;;;;;;;0.20;0.20;;;;;;;;;;5037035;28;20060;-72
2020/12/17 08:51:51;;;;;;;0.20;0.20;;;;;;;;;;5036670;28;20124;-72
2020/12/17 08:54:22;;;;;;;0.20;0.20;;;;;;;;;;5036346;28;20052;-72
2020/12/17 08:56:55;;;;;;;0.20;0.20;;;;;;;;;;5036393;28;20029;-72
2020/12/17 08:59:20;;;;;;;0.20;0.20;;;;;;;;;;5053039;28;20029;-73
2020/12/17 09:01:46;;;;;;;0.20;0.20;;;;;;;;;;5054252;28;20090;-73
2020/12/17 09:04:11;;;;;;;0.20;0.20;;;;;;;;;;5036413;28;20036;-72
2020/12/17 09:06:39;;;;;;;0.20;0.20;;;;;;;;;;5052827;28;20035;-73
2020/12/17 09:09:14;;;;;;;0.20;0.20;;;;;;;;;;5053152;28;20029;-72
2020/12/17 09:11:39;;;;;;;0.20;0.20;;;;;;;;;;5053028;28;20025;-74
2020/12/17 09:14:09;;;;;;;0.20;0.20;;;;;;;;;;5052775;28;20028;-74
2020/12/17 09:16:35;;;;;;;0.20;0.20;;;;;;;;;;5053016;28;20056;-74
2020/12/17 09:19:02;;;;;;;0.20;0.20;;;;;;;;;;5035943;28;20518;-74
2020/12/17 09:21:27;;;;;;;0.20;0.20;;;;;;;;;;5036620;28;20033;-74
2020/12/17 09:23:54;;;;;;;0.20;0.20;;;;;;;;;;5036455;28;20033;-71
2020/12/17 09:26:19;;;;;;;0.20;0.20;;;;;;;;;;5051786;28;20037;-73
2020/12/17 09:28:48;;;;;;;0.20;0.20;;;;;;;;;;5052524;28;20381;-73
2020/12/17 09:31:32;;;;;;;0.20;0.20;;;;;;;;;;5053335;28;20270;-73
2020/12/17 09:34:04;;;;;;;0.20;0.20;;;;;;;;;;5032643;28;20029;-73
2020/12/17 09:36:30;;;;;;;0.20;0.20;;;;;;;;;;5032806;28;20076;-72
2020/12/17 09:38:59;;;;;;;0.10;0.10;;;;;;;;;;5032127;28;20679;-73
2020/12/17 09:41:25;;;;;;;0.20;0.20;;;;;;;;;;5032324;28;20104;-73
2020/12/17 09:43:50;;;;;;;0.10;0.10;;;;;;;;;;5032917;28;20249;-72
2020/12/17 09:46:15;;;;;;;0.13;0.13;;;;;;;;;;5032506;28;20076;-73
2020/12/17 09:48:40;;;;;;;0.20;0.20;;;;;;;;;;5031724;28;20044;-71
2020/12/17 09:51:07;;;;;;;0.20;0.20;;;;;;;;;;5032110;28;20037;-71
2020/12/17 09:53:36;;;;;;;0.20;0.20;;;;;;;;;;5033135;28;20445;-70
2020/12/17 09:56:03;;;;;;;0.20;0.20;;;;;;;;;;5011793;28;20046;-69
2020/12/17 09:58:29;;;;;;;0.20;0.20;;;;;;;;;;5023076;28;20091;-70
2020/12/17 10:00:55;;;;;;;0.20;0.20;;;;;;;;;;5022818;28;20074;-70
2020/12/17 10:03:20;;;;;;;0.20;0.20;;;;;;;;;;4994072;28;20459;-70
2020/12/17 10:05:45;;;;;;;0.20;0.20;;;;;;;;;;4993705;28;20042;-71
2020/12/17 10:08:10;;;;;;;0.10;0.10;;;;;;;;;;5012351;28;20478;-71
2020/12/17 10:10:36;;;;;;;0.10;0.10;;;;;;;;;;4995852;28;20030;-69
2020/12/17 10:13:02;;;;;;;0.20;0.20;;;;;;;;;;5013015;28;20868;-69
2020/12/17 10:15:28;;;;;;;0.20;0.20;;;;;;;;;;4996220;28;20041;-71
2020/12/17 10:17:53;;;;;;;0.10;0.10;;;;;;;;;;4997204;28;20129;-74
2020/12/17 10:20:19;;;;;;;0.20;0.20;;;;;;;;;;4979376;28;20026;-74
2020/12/17 10:22:45;;;;;;;0.20;0.20;;;;;;;;;;4996011;28;20034;-72
2020/12/17 10:25:10;;;;;;;0.20;0.20;;;;;;;;;;4993853;28;20482;-74
2020/12/17 10:27:38;;;;;;;0.10;0.10;;;;;;;;;;4998779;28;20120;-75
2020/12/17 10:30:03;;;;;;;0.20;0.20;;;;;;;;;;4998382;28;20424;-75
2020/12/17 10:32:30;;;;;;;0.20;0.20;;;;;;;;;;5015521;28;20033;-75
2020/12/17 10:34:55;;;;;;;0.20;0.20;;;;;;;;;;5020833;28;20033;-75
2020/12/17 10:37:21;;;;;;;0.20;0.20;;;;;;;;;;5005785;28;20429;-74
2020/12/17 10:39:46;;;;;;;0.20;0.20;;;;;;;;;;5036900;28;20680;-74
2020/12/17 10:42:11;;;;;;;0.20;0.20;;;;;;;;;;5036601;28;20084;-74
2020/12/17 10:44:37;;;;;;;0.20;0.20;;;;;;;;;;5017410;28;20418;-74
2020/12/17 10:47:03;;;;;;;0.20;0.20;;;;;;;;;;5020303;28;20038;-73
2020/12/17 10:49:28;;;;;;;0.20;0.20;;;;;;;;;;5001659;28;20034;-74
2020/12/17 10:51:54;;;;;;;0.10;0.10;;;;;;;;;;5003427;28;20465;-74
2020/12/17 10:54:19;;;;;;;0.20;0.20;;;;;;;;;;5026504;28;20081;-74
2020/12/17 10:56:44;;;;;;;0.20;0.20;;;;;;;;;;4983102;28;20034;-73
2020/12/17 10:59:10;;;;;;;0.20;0.20;;;;;;;;;;4998594;28;20048;-73
2020/12/17 11:01:35;;;;;;;0.20;0.20;;;;;;;;;;4982903;28;20382;-73
2020/12/17 11:04:00;;;;;;;0.20;0.20;;;;;;;;;;5013978;28;20108;-75
2020/12/17 11:06:26;;;;;;;0.20;0.20;;;;;;;;;;5038809;28;20072;-75
2020/12/17 11:08:51;;;;;;;0.20;0.20;;;;;;;;;;5019444;28;20087;-73
2020/12/17 11:11:17;;;;;;;0.20;0.20;;;;;;;;;;5002528;28;20500;-73
2020/12/17 11:13:42;;;;;;;0.20;0.20;;;;;;;;;;5019332;28;20465;-73
2020/12/17 11:16:08;;;;;;;0.20;0.20;;;;;;;;;;5019220;28;20033;-73
2020/12/17 11:18:33;;;;;;;0.20;0.20;;;;;;;;;;5036578;28;20036;-73
2020/12/17 11:20:58;;;;;;;0.17;0.17;;;;;;;;;;5018830;28;20029;-73
2020/12/17 11:23:23;;;;;;;0.20;0.20;;;;;;;;;;4999133;28;20034;-75
2020/12/17 11:25:48;;;;;;;0.20;0.20;;;;;;;;;;5013836;28;20083;-70
2020/12/17 11:28:14;;;;;;;0.20;0.20;;;;;;;;;;5016760;28;20057;-71
2020/12/17 11:30:40;;;;;;;0.20;0.20;;;;;;;;;;5009677;28;20524;-71
2020/12/17 11:33:06;;;;;;;0.20;0.20;;;;;;;;;;5027577;28;20040;-71
2020/12/17 11:35:31;;;;;;;0.15;0.15;;;;;;;;;;5025190;28;20025;-72
2020/12/17 11:37:56;;;;;;;0.20;0.20;;;;;;;;;;5017252;28;20470;-72
2020/12/17 11:40:22;;;;;;;0.20;0.20;;;;;;;;;;5005086;28;20029;-73
2020/12/17 11:42:48;;;;;;;0.20;0.20;;;;;;;;;;5021331;28;20031;-73
2020/12/17 11:45:13;;;;;;;0.20;0.20;;;;;;;;;;5020301;28;20116;-73
2020/12/17 11:47:39;;;;;;;0.20;0.20;;;;;;;;;;5018612;28;20060;-73
2020/12/17 11:50:06;;;;;;;0.20;0.20;;;;;;;;;;5019281;28;20084;-73
2020/12/17 11:52:31;;;;;;;0.10;0.10;;;;;;;;;;5018514;28;20033;-74
2020/12/17 11:54:57;;;;;;;0.20;0.20;;;;;;;;;;5035675;28;20576;-74
2020/12/17 11:57:22;;;;;;;0.10;0.10;;;;;;;;;;4989988;28;20033;-74
2020/12/17 11:59:48;;;;;;;0.10;0.10;;;;;;;;;;5017972;28;20100;-72
2020/12/17 12:02:13;;;;;;;0.10;0.10;;;;;;;;;;5018491;28;20029;-73
2020/12/17 12:04:39;;;;;;;0.10;0.10;;;;;;;;;;5001543;28;20030;-73
2020/12/17 12:07:04;;;;;;;0.10;0.10;;;;;;;;;;5018149;28;20482;-73
2020/12/17 12:09:29;;;;;;;0.20;0.20;;;;;;;;;;5001330;28;20040;-73
2020/12/17 12:11:54;;;;;;;0.10;0.10;;;;;;;;;;5018995;28;20022;-74
2020/12/17 12:14:20;;;;;;;0.10;0.10;;;;;;;;;;5017717;28;20474;-74
2020/12/17 12:16:45;;;;;;;0.10;0.10;;;;;;;;;;5001403;28;20083;-73
2020/12/17 12:19:11;;;;;;;0.10;0.10;;;;;;;;;;5018005;28;20030;-74
2020/12/17 12:21:36;;;;;;;0.20;0.20;;;;;;;;;;5035767;28;20506;-74
2020/12/17 12:24:01;;;;;;;0.10;0.10;;;;;;;;;;5001537;28;20060;-74
2020/12/17 12:26:26;;;;;;;0.10;0.10;;;;;;;;;;5017785;28;20025;-73
2020/12/17 12:28:52;;;;;;;0.10;0.10;;;;;;;;;;5034780;28;20041;-75
2020/12/17 12:31:18;;;;;;;0.10;0.10;;;;;;;;;;5002087;28;20030;-75
2020/12/17 12:33:43;;;;;;;0.20;0.20;;;;;;;;;;4984418;28;20029;-75
2020/12/17 12:36:12;;;;;;;0.10;0.10;;;;;;;;;;5012363;28;20079;-75
2020/12/17 12:38:37;;;;;;;0.10;0.10;;;;;;;;;;4993839;28;20033;-73
2020/12/17 12:41:02;;;;;;;0.10;0.10;;;;;;;;;;5030445;28;20459;-73
2020/12/17 12:43:27;;;;;;;0.10;0.10;;;;;;;;;;5016094;28;20037;-74
2020/12/17 12:45:53;;;;;;;0.10;0.10;;;;;;;;;;4993172;28;20038;-74
2020/12/17 12:48:18;;;;;;;0.10;0.10;;;;;;;;;;4997587;28;20553;-73
2020/12/17 12:50:50;;;;;;;0.10;0.10;;;;;;;;;;5014004;28;20030;-74
2020/12/17 12:53:15;;;;;;;0.13;0.13;;;;;;;;;;4997664;28;20627;-76
2020/12/17 12:55:40;;;;;;;0.15;0.15;;;;;;;;;;5007475;28;20026;-76
2020/12/17 12:58:05;;;;;;;0.20;0.20;;;;;;;;;;5011111;28;20056;-75
2020/12/17 13:00:33;;;;;;;0.17;0.17;;;;;;;;;;5002803;28;20366;-73
2020/12/17 13:02:58;;;;;;;0.10;0.10;;;;;;;;;;5015588;28;20069;-72
2020/12/17 13:05:24;;;;;;;0.10;0.10;;;;;;;;;;5000660;28;20380;-72
2020/12/17 13:07:49;;;;;;;0.20;0.20;;;;;;;;;;5005667;28;20334;-73
2020/12/17 13:10:15;;;;;;;0.20;0.20;;;;;;;;;;5017591;28;20032;-74
2020/12/17 13:12:40;;;;;;;0.10;0.10;;;;;;;;;;5017674;28;20033;-74
2020/12/17 13:15:05;;;;;;;0.10;0.10;;;;;;;;;;5001275;28;20041;-74
2020/12/17 13:17:30;;;;;;;0.10;0.10;;;;;;;;;;5001368;28;20037;-74
2020/12/17 13:19:57;;;;;;;0.10;0.10;;;;;;;;;;4997096;28;20073;-75
2020/12/17 13:22:22;;;;;;;0.10;0.10;;;;;;;;;;4994039;28;20033;-75
2020/12/17 13:24:48;;;;;;;0.10;0.10;;;;;;;;;;5017712;28;20347;-75
2020/12/17 13:27:13;;;;;;;0.20;0.20;;;;;;;;;;5001408;28;20191;-74
2020/12/17 13:29:39;;;;;;;0.10;0.10;;;;;;;;;;5017230;28;20029;-74
2020/12/17 13:32:04;;;;;;;0.10;0.10;;;;;;;;;;5034420;28;20037;-75
2020/12/17 13:34:29;;;;;;;0.20;0.20;;;;;;;;;;5034218;28;20052;-75
2020/12/17 13:36:55;;;;;;;0.10;0.10;;;;;;;;;;5034421;28;20409;-75
2020/12/17 13:39:20;;;;;;;0.20;0.20;;;;;;;;;;5000009;28;20029;-75
2020/12/17 13:41:49;;;;;;;0.10;0.10;;;;;;;;;;5015767;28;20524;-74
2020/12/17 13:44:14;;;;;;;0.10;0.10;;;;;;;;;;5010767;28;20438;-71
2020/12/17 13:46:40;;;;;;;0.20;0.20;;;;;;;;;;5013571;28;20222;-71
2020/12/17 13:49:05;;;;;;;0.10;0.10;;;;;;;;;;4987630;28;20112;-71
2020/12/17 13:51:32;;;;;;;0.10;0.10;;;;;;;;;;5017804;28;20264;-69
2020/12/17 13:53:57;;;;;;;0.20;0.20;;;;;;;;;;5043880;28;20060;-70
2020/12/17 13:56:23;;;;;;;0.10;0.10;;;;;;;;;;5052555;28;20116;-72
2020/12/17 13:58:49;;;;;;;0.10;0.10;;;;;;;;;;5039358;28;20045;-71
2020/12/17 14:01:15;;;;;;;0.20;0.20;;;;;;;;;;5032527;28;20029;-72
2020/12/17 14:03:41;;;;;;;0.20;0.20;;;;;;;;;;5032533;28;20033;-71
2020/12/17 14:06:06;;;;;;;0.20;0.20;;;;;;;;;;5036432;28;20061;-70
2020/12/17 14:08:32;;;;;;;0.20;0.20;;;;;;;;;;5037921;28;20358;-70
2020/12/17 14:10:57;;;;;;;0.20;0.20;;;;;;;;;;5038457;28;20982;-71
2020/12/17 14:13:22;;;;;;;0.10;0.10;;;;;;;;;;5043595;28;20059;-70
2020/12/17 14:15:48;;;;;;;0.10;0.10;;;;;;;;;;5025493;28;20029;-71
2020/12/17 14:18:13;;;;;;;0.10;0.10;;;;;;;;;;5048127;28;20033;-70
2020/12/17 14:20:39;;;;;;;0.10;0.10;;;;;;;;;;5061311;28;20117;-71
2020/12/17 14:23:05;;;;;;;0.10;0.10;;;;;;;;;;5042264;28;20037;-71
2020/12/17 14:25:30;;;;;;;0.10;0.10;;;;;;;;;;5038706;28;20033;-70
2020/12/17 14:27:55;;;;;;;0.10;0.10;;;;;;;;;;5035608;28;20090;-73
2020/12/17 14:30:22;;;;;;;0.10;0.10;;;;;;;;;;5042391;28;20065;-74
2020/12/17 14:32:48;;;;;;;0.10;0.10;;;;;;;;;;5036167;28;20517;-72
2020/12/17 14:35:13;;;;;;;0.13;0.13;;;;;;;;;;5036841;28;20029;-71
2020/12/17 14:37:38;;;;;;;0.10;0.10;;;;;;;;;;5032215;28;21599;-71